sensor_id;sensor_type;location;lat;lon;timestamp;pressure;altitude;pressure_sealevel;temperature;humidity
75640;BME280;64233;51.486;6.332;2023-04-01T00:00:51;98933.16;;;8.20;100.00
75640;BME280;64233;51.486;6.332;2023-04-01T00:03:17;98927.31;;;8.18;100.00
75640;BME280;64233;51.486;6.332;2023-04-01T00:05:42;98923.00;;;8.22;100.00
75640;BME280;64233;51.486;6.332;2023-04-01T00:08:08;98917.94;;;8.21;100.00
75640;BME280;64233;51.486;6.332;2023-04-01T00:10:33;98913.59;;;8.25;100.00
75640;BME280;64233;51.486;6.332;2023-04-01T00:12:58;98916.56;;;8.23;100.00
75640;BME280;64233;51.486;6.332;2023-04-01T00:15:23;98919.47;;;8.27;100.00
75640;BME280;64233;51.486;6.332;2023-04-01T00:17:49;98928.00;;;8.29;100.00
75640;BME280;64233;51.486;6.332;2023-04-01T00:20:14;98921.88;;;8.28;100.00
75640;BME280;64233;51.486;6.332;2023-04-01T00:22:40;98932.31;;;8.25;100.00
75640;BME280;64233;51.486;6.332;2023-04-01T00:25:06;98922.44;;;8.25;100.00
75640;BME280;64233;51.486;6.332;2023-04-01T00:27:32;98919.78;;;8.25;100.00
75640;BME280;64233;51.486;6.332;2023-04-01T00:29:57;98914.41;;;8.25;100.00
75640;BME280;64233;51.486;6.332;2023-04-01T00:32:22;98903.94;;;8.29;100.00
75640;BME280;64233;51.486;6.332;2023-04-01T00:34:51;98908.25;;;8.25;100.00
75640;BME280;64233;51.486;6.332;2023-04-01T00:37:18;98908.81;;;8.22;100.00
75640;BME280;64233;51.486;6.332;2023-04-01T00:39:43;98909.66;;;8.22;100.00
75640;BME280;64233;51.486;6.332;2023-04-01T00:42:10;98913.38;;;8.21;100.00
75640;BME280;64233;51.486;6.332;2023-04-01T00:44:37;98905.38;;;8.21;100.00
75640;BME280;64233;51.486;6.332;2023-04-01T00:47:03;98898.94;;;8.22;100.00
75640;BME280;64233;51.486;6.332;2023-04-01T00:49:37;98896.56;;;8.21;100.00
75640;BME280;64233;51.486;6.332;2023-04-01T00:52:05;98905.38;;;8.21;100.00
75640;BME280;64233;51.486;6.332;2023-04-01T00:54:32;98894.97;;;8.20;100.00
75640;BME280;64233;51.486;6.332;2023-04-01T00:57:06;98906.44;;;8.20;100.00
75640;BME280;64233;51.486;6.332;2023-04-01T00:59:37;98901.16;;;8.15;100.00
75640;BME280;64233;51.486;6.332;2023-04-01T01:02:07;98896.34;;;8.12;100.00
75640;BME280;64233;51.486;6.332;2023-04-01T01:04:34;98905.97;;;8.13;100.00
75640;BME280;64233;51.486;6.332;2023-04-01T01:12:36;98894.72;;;8.16;100.00
75640;BME280;64233;51.486;6.332;2023-04-01T01:15:11;98899.28;;;8.16;100.00
75640;BME280;64233;51.486;6.332;2023-04-01T01:26:37;98897.56;;;8.25;100.00
75640;BME280;64233;51.486;6.332;2023-04-01T01:34:31;98884.19;;;8.25;100.00
75640;BME280;64233;51.486;6.332;2023-04-01T01:37:03;98892.97;;;8.31;100.00
75640;BME280;64233;51.486;6.332;2023-04-01T01:39:32;98892.47;;;8.28;100.00
75640;BME280;64233;51.486;6.332;2023-04-01T01:42:04;98888.94;;;8.33;100.00
75640;BME280;64233;51.486;6.332;2023-04-01T01:44:31;98897.25;;;8.32;100.00
75640;BME280;64233;51.486;6.332;2023-04-01T01:46:59;98912.53;;;8.26;100.00
75640;BME280;64233;51.486;6.332;2023-04-01T01:49:25;98883.94;;;8.26;100.00
75640;BME280;64233;51.486;6.332;2023-04-01T01:51:52;98912.81;;;8.24;100.00
75640;BME280;64233;51.486;6.332;2023-04-01T01:54:18;98906.44;;;8.20;100.00
75640;BME280;64233;51.486;6.332;2023-04-01T01:56:49;98904.63;;;8.16;100.00
75640;BME280;64233;51.486;6.332;2023-04-01T01:59:17;98909.16;;;8.15;100.00
75640;BME280;64233;51.486;6.332;2023-04-01T02:01:49;98922.28;;;8.12;100.00
75640;BME280;64233;51.486;6.332;2023-04-01T02:04:17;98922.28;;;8.12;100.00
75640;BME280;64233;51.486;6.332;2023-04-01T02:06:54;98933.81;;;8.07;100.00
75640;BME280;64233;51.486;6.332;2023-04-01T02:09:21;98922.88;;;8.03;100.00
75640;BME280;64233;51.486;6.332;2023-04-01T02:11:56;98926.38;;;8.04;100.00
75640;BME280;64233;51.486;6.332;2023-04-01T02:14:25;98930.66;;;8.00;100.00
75640;BME280;64233;51.486;6.332;2023-04-01T02:17:00;98929.28;;;8.02;100.00
75640;BME280;64233;51.486;6.332;2023-04-01T02:19:34;98939.19;;;8.02;100.00
75640;BME280;64233;51.486;6.332;2023-04-01T02:22:03;98942.66;;;8.02;100.00
75640;BME280;64233;51.486;6.332;2023-04-01T02:24:30;98934.63;;;8.02;100.00
75640;BME280;64233;51.486;6.332;2023-04-01T02:26:56;98938.13;;;8.03;100.00
75640;BME280;64233;51.486;6.332;2023-04-01T02:29:25;98939.75;;;7.99;100.00
75640;BME280;64233;51.486;6.332;2023-04-01T02:31:51;98943.22;;;7.99;100.00
75640;BME280;64233;51.486;6.332;2023-04-01T02:34:19;98939.75;;;7.99;100.00
75640;BME280;64233;51.486;6.332;2023-04-01T02:36:45;98944.81;;;8.00;100.00
75640;BME280;64233;51.486;6.332;2023-04-01T02:39:12;98946.13;;;8.03;100.00
75640;BME280;64233;51.486;6.332;2023-04-01T02:41:39;98943.22;;;7.99;100.00
75640;BME280;64233;51.486;6.332;2023-04-01T02:44:05;98943.75;;;8.01;100.00
75640;BME280;64233;51.486;6.332;2023-04-01T02:46:32;98948.81;;;8.03;100.00
75640;BME280;64233;51.486;6.332;2023-04-01T02:48:57;98950.16;;;8.00;100.00
75640;BME280;64233;51.486;6.332;2023-04-01T02:51:22;98950.16;;;8.00;100.00
75640;BME280;64233;51.486;6.332;2023-04-01T02:53:48;98948.56;;;7.99;100.00
75640;BME280;64233;51.486;6.332;2023-04-01T02:56:13;98950.44;;;7.99;100.00
75640;BME280;64233;51.486;6.332;2023-04-01T02:58:38;98955.00;;;7.98;100.00
75640;BME280;64233;51.486;6.332;2023-04-01T03:01:03;98960.34;;;7.98;100.00
75640;BME280;64233;51.486;6.332;2023-04-01T03:03:29;98964.34;;;7.96;100.00
75640;BME280;64233;51.486;6.332;2023-04-01T03:05:54;98956.91;;;7.92;100.00
75640;BME280;64233;51.486;6.332;2023-04-01T03:08:25;98965.69;;;7.93;100.00
75640;BME280;64233;51.486;6.332;2023-04-01T03:10:50;98964.91;;;7.92;100.00
75640;BME280;64233;51.486;6.332;2023-04-01T03:13:15;98963.31;;;7.91;100.00
75640;BME280;64233;51.486;6.332;2023-04-01T03:15:41;98959.84;;;7.91;100.00
75640;BME280;64233;51.486;6.332;2023-04-01T03:18:06;98968.66;;;7.91;100.00
75640;BME280;64233;51.486;6.332;2023-04-01T03:20:31;98978.56;;;7.91;100.00
75640;BME280;64233;51.486;6.332;2023-04-01T03:22:56;98965.44;;;7.89;100.00
75640;BME280;64233;51.486;6.332;2023-04-01T03:25:28;98973.72;;;7.93;100.00
75640;BME280;64233;51.486;6.332;2023-04-01T03:27:55;98972.41;;;7.90;100.00
75640;BME280;64233;51.486;6.332;2023-04-01T03:30:21;98977.75;;;7.90;100.00
75640;BME280;64233;51.486;6.332;2023-04-01T03:32:46;98972.41;;;7.90;100.00
75640;BME280;64233;51.486;6.332;2023-04-01T03:35:11;98971.31;;;7.91;100.00
75640;BME280;64233;51.486;6.332;2023-04-01T03:37:37;98973.22;;;7.91;100.00
75640;BME280;64233;51.486;6.332;2023-04-01T03:40:03;98977.72;;;7.96;100.00
75640;BME280;64233;51.486;6.332;2023-04-01T03:42:29;98977.44;;;7.97;100.00
75640;BME280;64233;51.486;6.332;2023-04-01T03:44:56;98979.03;;;7.98;100.00
75640;BME280;64233;51.486;6.332;2023-04-01T03:47:21;98985.16;;;7.99;100.00
75640;BME280;64233;51.486;6.332;2023-04-01T03:49:46;98979.81;;;7.99;100.00
75640;BME280;64233;51.486;6.332;2023-04-01T03:52:12;98983.00;;;8.01;100.00
75640;BME280;64233;51.486;6.332;2023-04-01T03:54:37;98985.69;;;8.01;100.00
75640;BME280;64233;51.486;6.332;2023-04-01T03:57:03;98980.34;;;8.01;100.00
75640;BME280;64233;51.486;6.332;2023-04-01T03:59:28;98985.41;;;8.02;100.00
75640;BME280;64233;51.486;6.332;2023-04-01T04:01:54;98985.97;;;7.99;100.00
75640;BME280;64233;51.486;6.332;2023-04-01T04:04:19;98981.97;;;7.97;100.00
75640;BME280;64233;51.486;6.332;2023-04-01T04:06:45;98985.44;;;7.97;100.00
75640;BME280;64233;51.486;6.332;2023-04-01T04:09:10;98991.59;;;7.98;100.00
75640;BME280;64233;51.486;6.332;2023-04-01T04:11:35;98991.06;;;7.96;100.00
75640;BME280;64233;51.486;6.332;2023-04-01T04:14:00;98998.81;;;7.97;100.00
75640;BME280;64233;51.486;6.332;2023-04-01T04:16:27;98990.25;;;7.95;100.00
75640;BME280;64233;51.486;6.332;2023-04-01T04:18:52;98998.28;;;7.95;100.00
75640;BME280;64233;51.486;6.332;2023-04-01T04:21:18;98999.38;;;7.94;100.00
75640;BME280;64233;51.486;6.332;2023-04-01T04:23:43;99002.03;;;7.94;100.00
75640;BME280;64233;51.486;6.332;2023-04-01T04:26:14;99000.44;;;7.93;100.00
75640;BME280;64233;51.486;6.332;2023-04-01T04:28:39;98999.66;;;7.92;100.00
75640;BME280;64233;51.486;6.332;2023-04-01T04:31:06;98995.38;;;7.91;100.00
75640;BME280;64233;51.486;6.332;2023-04-01T04:33:32;99000.19;;;7.89;100.00
75640;BME280;64233;51.486;6.332;2023-04-01T04:35:58;99003.66;;;7.90;100.00
75640;BME280;64233;51.486;6.332;2023-04-01T04:38:23;98988.69;;;7.89;100.00
75640;BME280;64233;51.486;6.332;2023-04-01T04:40:49;99000.47;;;7.88;100.00
75640;BME280;64233;51.486;6.332;2023-04-01T04:43:15;99007.69;;;7.87;100.00
75640;BME280;64233;51.486;6.332;2023-04-01T04:45:42;99003.13;;;7.88;100.00
75640;BME280;64233;51.486;6.332;2023-04-01T04:48:08;99000.47;;;7.88;100.00
75640;BME280;64233;51.486;6.332;2023-04-01T04:50:34;99000.72;;;7.86;100.00
75640;BME280;64233;51.486;6.332;2023-04-01T04:52:59;99001.28;;;7.88;100.00
75640;BME280;64233;51.486;6.332;2023-04-01T04:55:24;99016.19;;;7.89;100.00
75640;BME280;64233;51.486;6.332;2023-04-01T04:57:50;99013.31;;;7.86;100.00
75640;BME280;64233;51.486;6.332;2023-04-01T05:00:15;99020.75;;;7.89;100.00
75640;BME280;64233;51.486;6.332;2023-04-01T05:02:41;99023.72;;;7.87;100.00
75640;BME280;64233;51.486;6.332;2023-04-01T05:05:06;99028.53;;;7.85;100.00
75640;BME280;64233;51.486;6.332;2023-04-01T05:07:33;99020.25;;;7.87;100.00
75640;BME280;64233;51.486;6.332;2023-04-01T05:09:58;99021.81;;;7.88;100.00
75640;BME280;64233;51.486;6.332;2023-04-01T05:12:23;99023.16;;;7.90;100.00
75640;BME280;64233;51.486;6.332;2023-04-01T05:14:49;99034.91;;;7.89;100.00
75640;BME280;64233;51.486;6.332;2023-04-01T05:17:14;99028.78;;;7.89;100.00
75640;BME280;64233;51.486;6.332;2023-04-01T05:19:39;99029.06;;;7.87;100.00
75640;BME280;64233;51.486;6.332;2023-04-01T05:22:05;99031.72;;;7.87;100.00
75640;BME280;64233;51.486;6.332;2023-04-01T05:24:31;99033.06;;;7.85;100.00
75640;BME280;64233;51.486;6.332;2023-04-01T05:26:56;99043.47;;;7.86;100.00
75640;BME280;64233;51.486;6.332;2023-04-01T05:29:23;99039.22;;;7.85;100.00
75640;BME280;64233;51.486;6.332;2023-04-01T05:31:48;99033.88;;;7.85;100.00
75640;BME280;64233;51.486;6.332;2023-04-01T05:34:13;99037.63;;;7.84;100.00
75640;BME280;64233;51.486;6.332;2023-04-01T05:36:39;99040.84;;;7.81;100.00
75640;BME280;64233;51.486;6.332;2023-04-01T05:39:05;99039.75;;;7.82;100.00
75640;BME280;64233;51.486;6.332;2023-04-01T05:41:30;99048.31;;;7.79;100.00
75640;BME280;64233;51.486;6.332;2023-04-01T05:43:55;99048.03;;;7.81;100.00
75640;BME280;64233;51.486;6.332;2023-04-01T05:46:20;99048.59;;;7.78;100.00
75640;BME280;64233;51.486;6.332;2023-04-01T05:48:46;99051.00;;;7.79;100.00
75640;BME280;64233;51.486;6.332;2023-04-01T05:51:15;99053.94;;;7.78;100.00
75640;BME280;64233;51.486;6.332;2023-04-01T05:53:41;99050.47;;;7.77;100.00
75640;BME280;64233;51.486;6.332;2023-04-01T05:56:06;99057.69;;;7.76;100.00
75640;BME280;64233;51.486;6.332;2023-04-01T05:58:34;99056.88;;;7.76;100.00
75640;BME280;64233;51.486;6.332;2023-04-01T06:01:05;99053.94;;;7.78;100.00
75640;BME280;64233;51.486;6.332;2023-04-01T06:03:30;99058.50;;;7.77;100.00
75640;BME280;64233;51.486;6.332;2023-04-01T06:05:55;99062.22;;;7.76;100.00
75640;BME280;64233;51.486;6.332;2023-04-01T06:08:21;99056.88;;;7.76;100.00
75640;BME280;64233;51.486;6.332;2023-04-01T06:14:13;99068.34;;;7.76;100.00
75640;BME280;64233;51.486;6.332;2023-04-01T06:16:49;99068.91;;;7.73;100.00
75640;BME280;64233;51.486;6.332;2023-04-01T06:19:27;99072.66;;;7.72;100.00
75640;BME280;64233;51.486;6.332;2023-04-01T06:24:57;99079.59;;;7.73;100.00
75640;BME280;64233;51.486;6.332;2023-04-01T06:27:49;99084.44;;;7.71;100.00
75640;BME280;64233;51.486;6.332;2023-04-01T06:30:42;99088.66;;;7.72;100.00
75640;BME280;64233;51.486;6.332;2023-04-01T06:50:32;99112.97;;;7.76;100.00
75640;BME280;64233;51.486;6.332;2023-04-01T06:53:12;99114.31;;;7.79;100.00
75640;BME280;64233;51.486;6.332;2023-04-01T06:55:42;99115.91;;;7.80;100.00
75640;BME280;64233;51.486;6.332;2023-04-01T06:58:19;99115.09;;;7.79;100.00
75640;BME280;64233;51.486;6.332;2023-04-01T07:00:48;99120.72;;;7.78;100.00
75640;BME280;64233;51.486;6.332;2023-04-01T07:06:05;99122.59;;;7.77;100.00
75640;BME280;64233;51.486;6.332;2023-04-01T07:08:34;99126.06;;;7.78;100.00
75640;BME280;64233;51.486;6.332;2023-04-01T07:11:04;99127.38;;;7.80;100.00
75640;BME280;64233;51.486;6.332;2023-04-01T07:13:38;99128.47;;;7.79;100.00
75640;BME280;64233;51.486;6.332;2023-04-01T07:16:21;99135.91;;;7.82;100.00
75640;BME280;64233;51.486;6.332;2023-04-01T07:18:56;99137.00;;;7.81;100.00
75640;BME280;64233;51.486;6.332;2023-04-01T07:21:33;99149.00;;;7.84;100.00
75640;BME280;64233;51.486;6.332;2023-04-01T07:24:15;99142.09;;;7.83;100.00
75640;BME280;64233;51.486;6.332;2023-04-01T07:26:43;99157.28;;;7.82;100.00
75640;BME280;64233;51.486;6.332;2023-04-01T07:29:13;99156.78;;;7.85;100.00
75640;BME280;64233;51.486;6.332;2023-04-01T07:34:28;99167.16;;;7.92;100.00
75640;BME280;64233;51.486;6.332;2023-04-01T07:37:12;99161.28;;;7.90;100.00
75640;BME280;64233;51.486;6.332;2023-04-01T07:45:37;99178.09;;;7.90;100.00
75640;BME280;64233;51.486;6.332;2023-04-01T07:48:21;99175.44;;;7.90;100.00
75640;BME280;64233;51.486;6.332;2023-04-01T07:51:13;99178.38;;;7.94;100.00
75640;BME280;64233;51.486;6.332;2023-04-01T07:56:23;99188.75;;;8.01;100.00
75640;BME280;64233;51.486;6.332;2023-04-01T08:01:59;99202.38;;;8.04;100.00
75640;BME280;64233;51.486;6.332;2023-04-01T08:10:04;99214.41;;;8.07;100.00
75640;BME280;64233;51.486;6.332;2023-04-01T08:15:12;99217.31;;;8.16;100.00
75640;BME280;64233;51.486;6.332;2023-04-01T08:17:58;99222.91;;;8.19;100.00
75640;BME280;64233;51.486;6.332;2023-04-01T08:20:40;99223.97;;;8.23;100.00
75640;BME280;64233;51.486;6.332;2023-04-01T08:25:38;99235.19;;;8.25;100.00
75640;BME280;64233;51.486;6.332;2023-04-01T08:31:01;99236.72;;;8.42;100.00
75640;BME280;64233;51.486;6.332;2023-04-01T08:33:31;99237.53;;;8.42;100.00
75640;BME280;64233;51.486;6.332;2023-04-01T08:36:21;99243.16;;;8.41;100.00
75640;BME280;64233;51.486;6.332;2023-04-01T08:38:57;99251.19;;;8.41;100.00
75640;BME280;64233;51.486;6.332;2023-04-01T08:52:36;99262.84;;;8.71;100.00
75640;BME280;64233;51.486;6.332;2023-04-01T08:55:17;99263.13;;;8.69;100.00
75640;BME280;64233;51.486;6.332;2023-04-01T08:58:15;99269.31;;;8.59;100.00
75640;BME280;64233;51.486;6.332;2023-04-01T09:00:49;99268.50;;;8.59;100.00
75640;BME280;64233;51.486;6.332;2023-04-01T09:06:22;99281.03;;;8.69;100.00
75640;BME280;64233;51.486;6.332;2023-04-01T09:09:19;99281.88;;;8.59;100.00
75640;BME280;64233;51.486;6.332;2023-04-01T09:12:11;99283.75;;;8.64;100.00
75640;BME280;64233;51.486;6.332;2023-04-01T09:20:47;99299.53;;;8.60;100.00
75640;BME280;64233;51.486;6.332;2023-04-01T09:26:19;99312.41;;;8.48;100.00
75640;BME280;64233;51.486;6.332;2023-04-01T09:29:20;99309.69;;;8.63;100.00
75640;BME280;64233;51.486;6.332;2023-04-01T09:32:04;99311.88;;;8.51;100.00
75640;BME280;64233;51.486;6.332;2023-04-01T09:37:52;99322.53;;;8.56;100.00
75640;BME280;64233;51.486;6.332;2023-04-01T09:40:42;99314.28;;;8.52;100.00
75640;BME280;64233;51.486;6.332;2023-04-01T09:46:11;99320.69;;;8.51;100.00
75640;BME280;64233;51.486;6.332;2023-04-01T09:49:57;99329.50;;;8.52;100.00
75640;BME280;64233;51.486;6.332;2023-04-01T10:04:00;99334.88;;;8.47;100.00
75640;BME280;64233;51.486;6.332;2023-04-01T10:06:54;99349.00;;;8.57;100.00
75640;BME280;64233;51.486;6.332;2023-04-01T10:09:53;99352.50;;;8.58;100.00
75640;BME280;64233;51.486;6.332;2023-04-01T10:12:45;99357.81;;;8.63;100.00
75640;BME280;64233;51.486;6.332;2023-04-01T10:15:33;99361.28;;;8.69;100.00
75640;BME280;64233;51.486;6.332;2023-04-01T10:18:18;99357.00;;;8.73;100.00
75640;BME280;64233;51.486;6.332;2023-04-01T10:32:14;99372.69;;;9.00;100.00
75640;BME280;64233;51.486;6.332;2023-04-01T10:41:11;99388.75;;;8.95;100.00
75640;BME280;64233;51.486;6.332;2023-04-01T10:44:02;99388.75;;;9.00;100.00
75640;BME280;64233;51.486;6.332;2023-04-01T10:58:35;99405.09;;;8.93;100.00
75640;BME280;64233;51.486;6.332;2023-04-01T11:06:53;99403.16;;;9.04;100.00
75640;BME280;64233;51.486;6.332;2023-04-01T11:09:37;99416.56;;;9.04;100.00
75640;BME280;64233;51.486;6.332;2023-04-01T11:12:45;99418.94;;;9.11;100.00
75640;BME280;64233;51.486;6.332;2023-04-01T11:24:29;99417.28;;;9.25;100.00
75640;BME280;64233;51.486;6.332;2023-04-01T11:27:30;99430.09;;;9.34;100.00
75640;BME280;64233;51.486;6.332;2023-04-01T11:31:00;99425.56;;;9.29;100.00
75640;BME280;64233;51.486;6.332;2023-04-01T11:44:26;99443.53;;;9.23;100.00
75640;BME280;64233;51.486;6.332;2023-04-01T11:47:13;99457.94;;;9.38;100.00
75640;BME280;64233;51.486;6.332;2023-04-01T11:52:53;99449.88;;;9.43;100.00
75640;BME280;64233;51.486;6.332;2023-04-01T11:58:32;99463.00;;;9.34;100.00
75640;BME280;64233;51.486;6.332;2023-04-01T12:09:18;99475.13;;;9.21;100.00
75640;BME280;64233;51.486;6.332;2023-04-01T12:14:40;99490.38;;;9.21;100.00
75640;BME280;64233;51.486;6.332;2023-04-01T12:23:02;99487.47;;;9.07;100.00
75640;BME280;64233;51.486;6.332;2023-04-01T12:26:12;99493.63;;;9.23;100.00
75640;BME280;64233;51.486;6.332;2023-04-01T12:31:59;99505.94;;;9.19;100.00
75640;BME280;64233;51.486;6.332;2023-04-01T12:37:21;99514.50;;;9.21;100.00
75640;BME280;64233;51.486;6.332;2023-04-01T12:43:34;;;;9.22;
75640;BME280;64233;51.486;6.332;2023-04-01T12:59:23;99539.06;;;9.38;100.00
75640;BME280;64233;51.486;6.332;2023-04-01T13:02:01;99535.03;;;9.46;100.00
75640;BME280;64233;51.486;6.332;2023-04-01T13:04:39;99542.56;;;9.39;100.00
75640;BME280;64233;51.486;6.332;2023-04-01T13:13:00;99550.59;;;9.28;100.00
75640;BME280;64233;51.486;6.332;2023-04-01T13:15:51;99556.53;;;9.20;100.00
75640;BME280;64233;51.486;6.332;2023-04-01T13:18:32;99555.19;;;9.12;100.00
75640;BME280;64233;51.486;6.332;2023-04-01T13:24:37;99572.59;;;9.10;100.00
75640;BME280;64233;51.486;6.332;2023-04-01T13:27:12;99568.84;;;9.16;100.00
75640;BME280;64233;51.486;6.332;2023-04-01T13:35:16;99573.44;;;9.00;100.00
75640;BME280;64233;51.486;6.332;2023-04-01T13:43:19;99579.03;;;8.99;100.00
75640;BME280;64233;51.486;6.332;2023-04-01T13:51:45;99586.81;;;9.10;100.00
75640;BME280;64233;51.486;6.332;2023-04-01T13:54:37;99583.59;;;9.13;100.00
75640;BME280;64233;51.486;6.332;2023-04-01T14:00:06;99589.44;;;9.16;100.00
75640;BME280;64233;51.486;6.332;2023-04-01T14:14:03;99612.19;;;9.28;100.00
75640;BME280;64233;51.486;6.332;2023-04-01T14:16:40;99612.22;;;9.23;100.00
75640;BME280;64233;51.486;6.332;2023-04-01T14:19:28;99607.66;;;9.24;100.00
75640;BME280;64233;51.486;6.332;2023-04-01T14:27:26;99625.03;;;9.37;100.00
75640;BME280;64233;51.486;6.332;2023-04-01T14:30:04;99625.06;;;9.21;100.00
75640;BME280;64233;51.486;6.332;2023-04-01T14:32:51;99630.16;;;9.12;100.00
75640;BME280;64233;51.486;6.332;2023-04-01T14:47:11;99651.59;;;8.92;100.00
75640;BME280;64233;51.486;6.332;2023-04-01T14:49:47;99655.84;;;8.93;100.00
75640;BME280;64233;51.486;6.332;2023-04-01T14:52:21;99654.53;;;8.95;100.00
75640;BME280;64233;51.486;6.332;2023-04-01T14:54:49;99656.66;;;8.99;100.00
75640;BME280;64233;51.486;6.332;2023-04-01T14:57:29;99669.53;;;9.02;100.00
75640;BME280;64233;51.486;6.332;2023-04-01T15:00:17;99666.31;;;9.00;100.00
75640;BME280;64233;51.486;6.332;2023-04-01T15:05:47;99673.78;;;9.03;100.00
75640;BME280;64233;51.486;6.332;2023-04-01T15:08:19;99678.34;;;8.97;100.00
75640;BME280;64233;51.486;6.332;2023-04-01T15:11:12;99682.91;;;9.02;100.00
75640;BME280;64233;51.486;6.332;2023-04-01T15:13:58;99675.13;;;9.05;100.00
75640;BME280;64233;51.486;6.332;2023-04-01T15:16:28;99682.09;;;9.01;100.00
75640;BME280;64233;51.486;6.332;2023-04-01T15:27:44;99702.44;;;9.12;100.00
75640;BME280;64233;51.486;6.332;2023-04-01T15:30:44;99703.53;;;9.06;100.00
75640;BME280;64233;51.486;6.332;2023-04-01T15:36:08;99710.75;;;9.01;100.00
75640;BME280;64233;51.486;6.332;2023-04-01T15:44:46;99721.44;;;9.01;100.00
75640;BME280;64233;51.486;6.332;2023-04-01T15:53:05;99734.56;;;8.92;100.00
75640;BME280;64233;51.486;6.332;2023-04-01T15:59:04;99740.97;;;8.91;100.00
75640;BME280;64233;51.486;6.332;2023-04-01T16:01:50;99744.97;;;8.88;100.00
75640;BME280;64233;51.486;6.332;2023-04-01T16:10:02;99760.25;;;8.88;100.00
75640;BME280;64233;51.486;6.332;2023-04-01T16:15:26;99764.78;;;8.82;100.00
75640;BME280;64233;51.486;6.332;2023-04-01T16:21:04;99766.09;;;8.79;100.00
75640;BME280;64233;51.486;6.332;2023-04-01T16:23:47;99772.28;;;8.85;100.00
75640;BME280;64233;51.486;6.332;2023-04-01T16:26:20;99773.59;;;8.83;100.00
75640;BME280;64233;51.486;6.332;2023-04-01T16:29:26;99769.31;;;8.82;100.00
75640;BME280;64233;51.486;6.332;2023-04-01T16:32:12;99774.16;;;8.85;100.00
75640;BME280;64233;51.486;6.332;2023-04-01T16:35:01;99779.78;;;8.83;100.00
75640;BME280;64233;51.486;6.332;2023-04-01T16:37:38;99789.66;;;8.83;100.00
75640;BME280;64233;51.486;6.332;2023-04-01T16:43:06;99785.34;;;8.76;100.00
75640;BME280;64233;51.486;6.332;2023-04-01T16:46:18;99796.06;;;8.76;100.00
75640;BME280;64233;51.486;6.332;2023-04-01T16:49:15;99793.34;;;8.71;100.00
75640;BME280;64233;51.486;6.332;2023-04-01T16:52:12;99800.31;;;8.72;100.00
75640;BME280;64233;51.486;6.332;2023-04-01T16:54:58;99806.72;;;8.66;100.00
75640;BME280;64233;51.486;6.332;2023-04-01T16:57:30;99808.59;;;8.66;100.00
75640;BME280;64233;51.486;6.332;2023-04-01T17:02:27;99816.88;;;8.64;100.00
75640;BME280;64233;51.486;6.332;2023-04-01T17:05:08;99821.97;;;8.60;100.00
75640;BME280;64233;51.486;6.332;2023-04-01T17:08:04;99827.56;;;8.64;100.00
75640;BME280;64233;51.486;6.332;2023-04-01T17:13:33;99830.78;;;8.61;100.00
75640;BME280;64233;51.486;6.332;2023-04-01T17:16:41;99837.75;;;8.62;100.00
75640;BME280;64233;51.486;6.332;2023-04-01T17:36:44;99864.16;;;8.53;100.00
75640;BME280;64233;51.486;6.332;2023-04-01T17:44:49;99886.38;;;8.54;100.00
75640;BME280;64233;51.486;6.332;2023-04-01T17:55:49;99889.59;;;8.51;100.00
75640;BME280;64233;51.486;6.332;2023-04-01T17:58:27;99893.06;;;8.51;100.00
75640;BME280;64233;51.486;6.332;2023-04-01T18:01:09;99902.97;;;8.51;100.00
75640;BME280;64233;51.486;6.332;2023-04-01T18:07:06;99912.56;;;8.52;100.00
75640;BME280;64233;51.486;6.332;2023-04-01T18:12:33;99914.75;;;8.55;100.00
75640;BME280;64233;51.486;6.332;2023-04-01T18:15:28;99919.28;;;8.54;100.00
75640;BME280;64233;51.486;6.332;2023-04-01T18:20:54;99934.00;;;8.57;100.00
75640;BME280;64233;51.486;6.332;2023-04-01T18:23:43;99940.16;;;8.57;100.00
75640;BME280;64233;51.486;6.332;2023-04-01T18:26:18;99939.63;;;8.55;100.00
75640;BME280;64233;51.486;6.332;2023-04-01T18:28:54;99953.00;;;8.55;100.00
75640;BME280;64233;51.486;6.332;2023-04-01T18:31:24;99948.69;;;8.54;100.00
75640;BME280;64233;51.486;6.332;2023-04-01T18:36:49;99986.66;;;8.51;100.00
75640;BME280;64233;51.486;6.332;2023-04-01T18:42:22;99981.53;;;8.44;100.00
75640;BME280;64233;51.486;6.332;2023-04-01T18:45:17;99990.84;;;8.42;100.00
75640;BME280;64233;51.486;6.332;2023-04-01T18:47:54;100000.72;;;8.41;100.00
75640;BME280;64233;51.486;6.332;2023-04-01T18:53:14;100022.91;;;8.37;100.00
75640;BME280;64233;51.486;6.332;2023-04-01T18:55:59;100014.56;;;8.33;100.00
75640;BME280;64233;51.486;6.332;2023-04-01T18:58:35;100030.06;;;8.31;100.00
75640;BME280;64233;51.486;6.332;2023-04-01T19:01:15;100024.16;;;8.29;100.00
75640;BME280;64233;51.486;6.332;2023-04-01T19:06:30;100037.53;;;8.29;100.00
75640;BME280;64233;51.486;6.332;2023-04-01T19:09:16;100040.44;;;8.27;100.00
75640;BME280;64233;51.486;6.332;2023-04-01T19:11:56;100047.41;;;8.28;100.00
75640;BME280;64233;51.486;6.332;2023-04-01T19:14:29;100053.28;;;8.25;100.00
75640;BME280;64233;51.486;6.332;2023-04-01T19:17:14;100061.84;;;8.27;100.00
75640;BME280;64233;51.486;6.332;2023-04-01T19:28:22;100078.91;;;8.21;100.00
75640;BME280;64233;51.486;6.332;2023-04-01T19:30:59;100090.09;;;8.18;100.00
75640;BME280;64233;51.486;6.332;2023-04-01T19:33:57;100093.50;;;8.14;100.00
75640;BME280;64233;51.486;6.332;2023-04-01T19:36:50;100096.66;;;8.05;100.00
75640;BME280;64233;51.486;6.332;2023-04-01T19:45:51;100105.91;;;7.98;100.00
75640;BME280;64233;51.486;6.332;2023-04-01T19:47:50;100111.22;;;7.92;100.00
75640;BME280;64233;51.486;6.332;2023-04-01T19:52:47;100129.84;;;7.87;100.00
75640;BME280;64233;51.486;6.332;2023-04-01T19:55:37;100126.06;;;7.83;100.00
75640;BME280;64233;51.486;6.332;2023-04-01T19:58:26;100138.03;;;7.81;100.00
75640;BME280;64233;51.486;6.332;2023-04-01T20:00:57;100146.31;;;7.79;100.00
75640;BME280;64233;51.486;6.332;2023-04-01T20:06:23;100155.06;;;7.74;100.00
75640;BME280;64233;51.486;6.332;2023-04-01T20:14:50;100177.91;;;7.65;100.00
75640;BME280;64233;51.486;6.332;2023-04-01T20:20:29;100195.91;;;7.53;100.00